Portada
METAR-TAF:

METAR-TAF

Aeropuertos :

Upington, Sudáfrica

latitud: 28-24S, longitud: 021-16E, altitud: 839 m

Observación

El informe se hizo hace 42 minutos, a las 21:00 UTC
Viento 3 kt del suroeste
Temperatura 6°C
Humedad 61%
Presión 1025 hPa

METAR: FAUP 262100Z AUTO 23003KT //// // ////// 06/M01 Q1025

Hora: 23:42 (21:42 UTC)

Pronóstico

El informe se hizo hace 5 horas y 42 minutos, a las 16:00 UTC
Pronóstico válido del 26 a las 18 UTC al 27 a las 18 UTC
Viento 3 kt con dirección variable
Visibilidad 10 km o más
sin nubes por debajo de 1500 m y sin presencia de cumulonimbus.

TAF: FAUP 261600Z 2618/2718 VRB03KT CAVOK TX17/2712Z TNM02/2704Z

Observaciones y pronósticos meteorológicos de más de 4000 aeropuertos (mensajes METAR y TAF).

Los puntos amarillos y rojos representan las estaciones disponibles.

Ponga el ratón en el punto deseado para ver el nombre de la estación.

Haga clic para ver las observaciones y los pronósticos meteorológicos.

Para cambiar el mapa : haga clic en los botones verdes con una cruz de color negro para hacer un zoom, en el botón verde con un guión para alejar o en las flechas verdes para mapas adyacentes.


METAR-TAF: